sensor_id;sensor_type;location;lat;lon;timestamp;P1;durP1;ratioP1;P2;durP2;ratioP2
9799;SDS011;4939;52.00085300;4.17406100;2024-03-25T00:00:09;18.98;;;1.58;;
9799;SDS011;4939;52.00085300;4.17406100;2024-03-25T00:02:36;15.95;;;1.52;;
9799;SDS011;4939;52.00085300;4.17406100;2024-03-25T00:05:05;12.30;;;1.60;;
9799;SDS011;4939;52.00085300;4.17406100;2024-03-25T00:07:37;16.58;;;1.70;;
9799;SDS011;4939;52.00085300;4.17406100;2024-03-25T00:10:04;15.38;;;1.80;;
9799;SDS011;4939;52.00085300;4.17406100;2024-03-25T00:12:33;13.23;;;1.67;;
9799;SDS011;4939;52.00085300;4.17406100;2024-03-25T00:14:59;16.70;;;1.65;;
9799;SDS011;4939;52.00085300;4.17406100;2024-03-25T00:17:25;23.27;;;2.05;;
9799;SDS011;4939;52.00085300;4.17406100;2024-03-25T00:19:52;12.50;;;1.40;;
9799;SDS011;4939;52.00085300;4.17406100;2024-03-25T00:22:18;13.18;;;1.55;;
9799;SDS011;4939;52.00085300;4.17406100;2024-03-25T00:24:48;12.93;;;1.85;;
9799;SDS011;4939;52.00085300;4.17406100;2024-03-25T00:27:14;15.52;;;1.52;;
9799;SDS011;4939;52.00085300;4.17406100;2024-03-25T00:29:40;19.23;;;1.92;;
9799;SDS011;4939;52.00085300;4.17406100;2024-03-25T00:32:07;13.02;;;1.63;;
9799;SDS011;4939;52.00085300;4.17406100;2024-03-25T00:34:33;13.68;;;1.83;;
9799;SDS011;4939;52.00085300;4.17406100;2024-03-25T00:36:59;12.93;;;1.85;;
9799;SDS011;4939;52.00085300;4.17406100;2024-03-25T00:39:26;12.23;;;1.25;;
9799;SDS011;4939;52.00085300;4.17406100;2024-03-25T00:41:52;7.18;;;1.20;;
9799;SDS011;4939;52.00085300;4.17406100;2024-03-25T00:44:18;8.05;;;1.27;;
9799;SDS011;4939;52.00085300;4.17406100;2024-03-25T00:46:45;9.60;;;1.40;;
9799;SDS011;4939;52.00085300;4.17406100;2024-03-25T00:49:11;11.63;;;2.08;;
9799;SDS011;4939;52.00085300;4.17406100;2024-03-25T00:51:37;15.02;;;2.80;;
9799;SDS011;4939;52.00085300;4.17406100;2024-03-25T00:54:03;12.45;;;1.67;;
9799;SDS011;4939;52.00085300;4.17406100;2024-03-25T00:56:30;13.77;;;1.88;;
9799;SDS011;4939;52.00085300;4.17406100;2024-03-25T00:58:56;12.75;;;1.70;;
9799;SDS011;4939;52.00085300;4.17406100;2024-03-25T01:01:23;7.93;;;1.10;;
9799;SDS011;4939;52.00085300;4.17406100;2024-03-25T01:03:49;11.23;;;1.55;;
9799;SDS011;4939;52.00085300;4.17406100;2024-03-25T01:06:15;12.10;;;1.85;;
9799;SDS011;4939;52.00085300;4.17406100;2024-03-25T01:08:43;15.90;;;2.05;;
9799;SDS011;4939;52.00085300;4.17406100;2024-03-25T01:11:09;10.38;;;1.52;;
9799;SDS011;4939;52.00085300;4.17406100;2024-03-25T01:13:35;9.77;;;1.75;;
9799;SDS011;4939;52.00085300;4.17406100;2024-03-25T01:16:01;11.77;;;1.50;;
9799;SDS011;4939;52.00085300;4.17406100;2024-03-25T01:18:27;13.77;;;1.70;;
9799;SDS011;4939;52.00085300;4.17406100;2024-03-25T01:20:53;10.60;;;1.48;;
9799;SDS011;4939;52.00085300;4.17406100;2024-03-25T01:23:20;14.35;;;1.73;;
9799;SDS011;4939;52.00085300;4.17406100;2024-03-25T01:25:46;7.95;;;1.52;;
9799;SDS011;4939;52.00085300;4.17406100;2024-03-25T01:28:12;8.80;;;1.30;;
9799;SDS011;4939;52.00085300;4.17406100;2024-03-25T01:30:38;10.55;;;1.75;;
9799;SDS011;4939;52.00085300;4.17406100;2024-03-25T01:33:04;10.90;;;1.65;;
9799;SDS011;4939;52.00085300;4.17406100;2024-03-25T01:35:30;20.15;;;1.73;;
9799;SDS011;4939;52.00085300;4.17406100;2024-03-25T01:37:56;8.68;;;1.40;;
9799;SDS011;4939;52.00085300;4.17406100;2024-03-25T01:40:23;7.05;;;1.55;;
9799;SDS011;4939;52.00085300;4.17406100;2024-03-25T01:42:58;11.23;;;1.30;;
9799;SDS011;4939;52.00085300;4.17406100;2024-03-25T01:45:25;11.02;;;1.30;;
9799;SDS011;4939;52.00085300;4.17406100;2024-03-25T01:47:54;15.90;;;1.50;;
9799;SDS011;4939;52.00085300;4.17406100;2024-03-25T01:50:24;11.73;;;1.20;;
9799;SDS011;4939;52.00085300;4.17406100;2024-03-25T01:52:51;8.30;;;1.38;;
9799;SDS011;4939;52.00085300;4.17406100;2024-03-25T01:55:20;13.50;;;2.30;;
9799;SDS011;4939;52.00085300;4.17406100;2024-03-25T01:57:47;12.02;;;2.05;;
9799;SDS011;4939;52.00085300;4.17406100;2024-03-25T02:00:13;13.45;;;2.67;;
9799;SDS011;4939;52.00085300;4.17406100;2024-03-25T02:02:41;15.13;;;2.28;;
9799;SDS011;4939;52.00085300;4.17406100;2024-03-25T02:05:16;13.35;;;2.28;;
9799;SDS011;4939;52.00085300;4.17406100;2024-03-25T02:07:43;13.25;;;2.00;;
9799;SDS011;4939;52.00085300;4.17406100;2024-03-25T02:10:10;7.45;;;1.25;;
9799;SDS011;4939;52.00085300;4.17406100;2024-03-25T02:12:43;12.57;;;1.30;;
9799;SDS011;4939;52.00085300;4.17406100;2024-03-25T02:15:10;12.82;;;1.27;;
9799;SDS011;4939;52.00085300;4.17406100;2024-03-25T02:17:37;15.80;;;2.08;;
9799;SDS011;4939;52.00085300;4.17406100;2024-03-25T02:20:03;11.27;;;1.48;;
9799;SDS011;4939;52.00085300;4.17406100;2024-03-25T02:22:31;8.48;;;1.20;;
9799;SDS011;4939;52.00085300;4.17406100;2024-03-25T02:24:58;12.30;;;1.80;;
9799;SDS011;4939;52.00085300;4.17406100;2024-03-25T02:27:25;8.52;;;1.33;;
9799;SDS011;4939;52.00085300;4.17406100;2024-03-25T02:29:53;16.98;;;2.15;;
9799;SDS011;4939;52.00085300;4.17406100;2024-03-25T02:32:19;14.00;;;1.33;;
9799;SDS011;4939;52.00085300;4.17406100;2024-03-25T02:34:51;10.07;;;1.50;;
9799;SDS011;4939;52.00085300;4.17406100;2024-03-25T02:37:18;11.48;;;2.30;;
9799;SDS011;4939;52.00085300;4.17406100;2024-03-25T02:39:44;12.60;;;2.10;;
9799;SDS011;4939;52.00085300;4.17406100;2024-03-25T02:42:10;15.02;;;1.45;;
9799;SDS011;4939;52.00085300;4.17406100;2024-03-25T02:44:36;15.77;;;2.67;;
9799;SDS011;4939;52.00085300;4.17406100;2024-03-25T02:47:02;9.60;;;2.22;;
9799;SDS011;4939;52.00085300;4.17406100;2024-03-25T02:49:29;13.13;;;1.52;;
9799;SDS011;4939;52.00085300;4.17406100;2024-03-25T02:51:55;8.48;;;1.95;;
9799;SDS011;4939;52.00085300;4.17406100;2024-03-25T02:54:21;9.80;;;1.33;;
9799;SDS011;4939;52.00085300;4.17406100;2024-03-25T02:56:47;9.63;;;1.55;;
9799;SDS011;4939;52.00085300;4.17406100;2024-03-25T02:59:13;16.00;;;1.75;;
9799;SDS011;4939;52.00085300;4.17406100;2024-03-25T03:01:39;11.50;;;1.38;;
9799;SDS011;4939;52.00085300;4.17406100;2024-03-25T03:04:05;13.80;;;1.70;;
9799;SDS011;4939;52.00085300;4.17406100;2024-03-25T03:06:31;14.60;;;1.70;;
9799;SDS011;4939;52.00085300;4.17406100;2024-03-25T03:08:57;10.32;;;1.83;;
9799;SDS011;4939;52.00085300;4.17406100;2024-03-25T03:11:23;12.07;;;1.42;;
9799;SDS011;4939;52.00085300;4.17406100;2024-03-25T03:13:49;17.23;;;2.20;;
9799;SDS011;4939;52.00085300;4.17406100;2024-03-25T03:16:15;14.15;;;2.17;;
9799;SDS011;4939;52.00085300;4.17406100;2024-03-25T03:18:41;15.35;;;2.28;;
9799;SDS011;4939;52.00085300;4.17406100;2024-03-25T03:21:07;16.38;;;2.38;;
9799;SDS011;4939;52.00085300;4.17406100;2024-03-25T03:23:33;12.05;;;1.80;;
9799;SDS011;4939;52.00085300;4.17406100;2024-03-25T03:25:59;12.50;;;1.85;;
9799;SDS011;4939;52.00085300;4.17406100;2024-03-25T03:28:26;8.50;;;1.90;;
9799;SDS011;4939;52.00085300;4.17406100;2024-03-25T03:30:53;14.05;;;1.70;;
9799;SDS011;4939;52.00085300;4.17406100;2024-03-25T03:33:19;8.50;;;1.83;;
9799;SDS011;4939;52.00085300;4.17406100;2024-03-25T03:35:46;8.95;;;1.45;;
9799;SDS011;4939;52.00085300;4.17406100;2024-03-25T03:38:12;14.13;;;2.22;;
9799;SDS011;4939;52.00085300;4.17406100;2024-03-25T03:40:38;10.70;;;1.48;;
9799;SDS011;4939;52.00085300;4.17406100;2024-03-25T03:43:04;13.63;;;2.00;;
9799;SDS011;4939;52.00085300;4.17406100;2024-03-25T03:45:32;14.57;;;1.90;;
9799;SDS011;4939;52.00085300;4.17406100;2024-03-25T03:48:01;8.82;;;1.98;;
9799;SDS011;4939;52.00085300;4.17406100;2024-03-25T03:50:28;20.90;;;2.15;;
9799;SDS011;4939;52.00085300;4.17406100;2024-03-25T03:52:54;12.55;;;1.73;;
9799;SDS011;4939;52.00085300;4.17406100;2024-03-25T03:55:20;14.48;;;1.83;;
9799;SDS011;4939;52.00085300;4.17406100;2024-03-25T03:57:46;13.00;;;2.03;;
9799;SDS011;4939;52.00085300;4.17406100;2024-03-25T04:00:12;10.18;;;1.83;;
9799;SDS011;4939;52.00085300;4.17406100;2024-03-25T04:02:39;12.55;;;1.95;;
9799;SDS011;4939;52.00085300;4.17406100;2024-03-25T04:05:05;11.93;;;1.83;;
9799;SDS011;4939;52.00085300;4.17406100;2024-03-25T04:07:32;12.77;;;2.00;;
9799;SDS011;4939;52.00085300;4.17406100;2024-03-25T04:09:57;9.35;;;1.67;;
9799;SDS011;4939;52.00085300;4.17406100;2024-03-25T04:12:24;13.85;;;1.80;;
9799;SDS011;4939;52.00085300;4.17406100;2024-03-25T04:14:51;11.68;;;2.03;;
9799;SDS011;4939;52.00085300;4.17406100;2024-03-25T04:17:23;8.07;;;2.22;;
9799;SDS011;4939;52.00085300;4.17406100;2024-03-25T04:19:50;8.15;;;1.88;;
9799;SDS011;4939;52.00085300;4.17406100;2024-03-25T04:22:16;15.68;;;2.20;;
9799;SDS011;4939;52.00085300;4.17406100;2024-03-25T04:24:43;13.43;;;2.15;;
9799;SDS011;4939;52.00085300;4.17406100;2024-03-25T04:27:09;10.43;;;1.77;;
9799;SDS011;4939;52.00085300;4.17406100;2024-03-25T04:29:35;12.55;;;1.95;;
9799;SDS011;4939;52.00085300;4.17406100;2024-03-25T04:32:01;7.03;;;2.08;;
9799;SDS011;4939;52.00085300;4.17406100;2024-03-25T04:34:27;8.48;;;2.05;;
9799;SDS011;4939;52.00085300;4.17406100;2024-03-25T04:36:53;9.27;;;1.70;;
9799;SDS011;4939;52.00085300;4.17406100;2024-03-25T04:39:19;11.77;;;2.20;;
9799;SDS011;4939;52.00085300;4.17406100;2024-03-25T04:41:45;7.07;;;1.90;;
9799;SDS011;4939;52.00085300;4.17406100;2024-03-25T04:44:11;7.95;;;2.00;;
9799;SDS011;4939;52.00085300;4.17406100;2024-03-25T04:46:37;9.20;;;2.13;;
9799;SDS011;4939;52.00085300;4.17406100;2024-03-25T04:49:03;6.40;;;1.60;;
9799;SDS011;4939;52.00085300;4.17406100;2024-03-25T04:51:29;9.88;;;2.00;;
9799;SDS011;4939;52.00085300;4.17406100;2024-03-25T04:53:56;9.57;;;2.10;;
9799;SDS011;4939;52.00085300;4.17406100;2024-03-25T04:56:22;7.93;;;1.73;;
9799;SDS011;4939;52.00085300;4.17406100;2024-03-25T04:58:48;13.02;;;2.33;;
9799;SDS011;4939;52.00085300;4.17406100;2024-03-25T05:01:14;11.18;;;1.90;;
9799;SDS011;4939;52.00085300;4.17406100;2024-03-25T05:03:40;15.85;;;2.70;;
9799;SDS011;4939;52.00085300;4.17406100;2024-03-25T05:06:07;8.43;;;1.77;;
9799;SDS011;4939;52.00085300;4.17406100;2024-03-25T05:08:36;15.13;;;2.38;;
9799;SDS011;4939;52.00085300;4.17406100;2024-03-25T05:11:02;9.32;;;2.53;;
9799;SDS011;4939;52.00085300;4.17406100;2024-03-25T05:13:28;15.18;;;2.50;;
9799;SDS011;4939;52.00085300;4.17406100;2024-03-25T05:15:54;14.57;;;2.17;;
9799;SDS011;4939;52.00085300;4.17406100;2024-03-25T05:18:21;7.88;;;2.55;;
9799;SDS011;4939;52.00085300;4.17406100;2024-03-25T05:20:47;16.15;;;2.38;;
9799;SDS011;4939;52.00085300;4.17406100;2024-03-25T05:23:13;8.05;;;2.92;;
9799;SDS011;4939;52.00085300;4.17406100;2024-03-25T05:25:39;9.95;;;2.15;;
9799;SDS011;4939;52.00085300;4.17406100;2024-03-25T05:28:05;11.98;;;2.97;;
9799;SDS011;4939;52.00085300;4.17406100;2024-03-25T05:30:32;13.88;;;2.28;;
9799;SDS011;4939;52.00085300;4.17406100;2024-03-25T05:32:58;14.68;;;2.67;;
9799;SDS011;4939;52.00085300;4.17406100;2024-03-25T05:35:24;14.23;;;2.17;;
9799;SDS011;4939;52.00085300;4.17406100;2024-03-25T05:37:50;13.32;;;2.63;;
9799;SDS011;4939;52.00085300;4.17406100;2024-03-25T05:40:16;9.95;;;2.30;;
9799;SDS011;4939;52.00085300;4.17406100;2024-03-25T05:42:46;14.93;;;2.60;;
9799;SDS011;4939;52.00085300;4.17406100;2024-03-25T05:45:11;11.90;;;2.80;;
9799;SDS011;4939;52.00085300;4.17406100;2024-03-25T05:47:37;8.05;;;2.40;;
9799;SDS011;4939;52.00085300;4.17406100;2024-03-25T05:50:04;13.57;;;2.47;;
9799;SDS011;4939;52.00085300;4.17406100;2024-03-25T05:52:30;8.40;;;2.33;;
9799;SDS011;4939;52.00085300;4.17406100;2024-03-25T05:54:58;16.80;;;3.30;;
9799;SDS011;4939;52.00085300;4.17406100;2024-03-25T05:57:24;9.45;;;2.42;;
9799;SDS011;4939;52.00085300;4.17406100;2024-03-25T05:59:50;21.38;;;2.88;;
9799;SDS011;4939;52.00085300;4.17406100;2024-03-25T06:02:16;13.02;;;2.42;;
9799;SDS011;4939;52.00085300;4.17406100;2024-03-25T06:04:43;19.88;;;3.08;;
9799;SDS011;4939;52.00085300;4.17406100;2024-03-25T06:07:09;19.00;;;2.85;;
9799;SDS011;4939;52.00085300;4.17406100;2024-03-25T06:09:35;13.38;;;2.85;;
9799;SDS011;4939;52.00085300;4.17406100;2024-03-25T06:12:01;16.70;;;2.97;;
9799;SDS011;4939;52.00085300;4.17406100;2024-03-25T06:14:28;14.98;;;2.90;;
9799;SDS011;4939;52.00085300;4.17406100;2024-03-25T06:16:54;15.95;;;3.20;;
9799;SDS011;4939;52.00085300;4.17406100;2024-03-25T06:19:20;19.40;;;3.00;;
9799;SDS011;4939;52.00085300;4.17406100;2024-03-25T06:21:46;19.27;;;3.53;;
9799;SDS011;4939;52.00085300;4.17406100;2024-03-25T06:24:12;14.40;;;3.97;;
9799;SDS011;4939;52.00085300;4.17406100;2024-03-25T06:26:39;19.23;;;3.65;;
9799;SDS011;4939;52.00085300;4.17406100;2024-03-25T06:29:05;19.73;;;4.07;;
9799;SDS011;4939;52.00085300;4.17406100;2024-03-25T06:31:31;32.03;;;4.55;;
9799;SDS011;4939;52.00085300;4.17406100;2024-03-25T06:34:16;19.88;;;4.70;;
9799;SDS011;4939;52.00085300;4.17406100;2024-03-25T06:36:46;28.35;;;6.15;;
9799;SDS011;4939;52.00085300;4.17406100;2024-03-25T06:39:13;20.60;;;5.40;;
9799;SDS011;4939;52.00085300;4.17406100;2024-03-25T06:41:39;33.25;;;7.03;;
9799;SDS011;4939;52.00085300;4.17406100;2024-03-25T06:44:05;27.50;;;6.13;;
9799;SDS011;4939;52.00085300;4.17406100;2024-03-25T06:46:32;24.27;;;5.85;;
9799;SDS011;4939;52.00085300;4.17406100;2024-03-25T06:48:58;19.15;;;6.20;;
9799;SDS011;4939;52.00085300;4.17406100;2024-03-25T06:51:25;23.20;;;6.65;;
9799;SDS011;4939;52.00085300;4.17406100;2024-03-25T06:53:51;22.95;;;6.53;;
9799;SDS011;4939;52.00085300;4.17406100;2024-03-25T06:56:17;32.97;;;7.68;;
9799;SDS011;4939;52.00085300;4.17406100;2024-03-25T06:58:43;25.67;;;8.07;;
9799;SDS011;4939;52.00085300;4.17406100;2024-03-25T07:01:10;20.30;;;7.45;;
9799;SDS011;4939;52.00085300;4.17406100;2024-03-25T07:03:39;22.58;;;7.70;;
9799;SDS011;4939;52.00085300;4.17406100;2024-03-25T07:06:06;27.55;;;7.60;;
9799;SDS011;4939;52.00085300;4.17406100;2024-03-25T07:08:32;25.30;;;8.65;;
9799;SDS011;4939;52.00085300;4.17406100;2024-03-25T07:10:58;27.00;;;9.15;;
9799;SDS011;4939;52.00085300;4.17406100;2024-03-25T07:13:24;21.83;;;8.05;;
9799;SDS011;4939;52.00085300;4.17406100;2024-03-25T07:15:50;22.60;;;8.38;;
9799;SDS011;4939;52.00085300;4.17406100;2024-03-25T07:18:17;24.17;;;8.25;;
9799;SDS011;4939;52.00085300;4.17406100;2024-03-25T07:20:43;28.48;;;8.75;;
9799;SDS011;4939;52.00085300;4.17406100;2024-03-25T07:23:09;23.40;;;8.77;;
9799;SDS011;4939;52.00085300;4.17406100;2024-03-25T07:25:36;24.40;;;8.90;;
9799;SDS011;4939;52.00085300;4.17406100;2024-03-25T07:28:02;24.00;;;8.38;;
9799;SDS011;4939;52.00085300;4.17406100;2024-03-25T07:30:29;24.60;;;8.45;;
9799;SDS011;4939;52.00085300;4.17406100;2024-03-25T07:32:55;18.73;;;7.60;;
9799;SDS011;4939;52.00085300;4.17406100;2024-03-25T07:35:22;22.27;;;7.53;;
9799;SDS011;4939;52.00085300;4.17406100;2024-03-25T07:37:48;15.52;;;7.13;;
9799;SDS011;4939;52.00085300;4.17406100;2024-03-25T07:40:17;19.38;;;7.28;;
9799;SDS011;4939;52.00085300;4.17406100;2024-03-25T07:42:45;21.05;;;7.00;;
9799;SDS011;4939;52.00085300;4.17406100;2024-03-25T07:45:11;19.00;;;7.18;;
9799;SDS011;4939;52.00085300;4.17406100;2024-03-25T07:47:37;17.92;;;6.65;;
9799;SDS011;4939;52.00085300;4.17406100;2024-03-25T07:50:04;16.77;;;6.97;;
9799;SDS011;4939;52.00085300;4.17406100;2024-03-25T07:52:30;18.05;;;7.20;;
9799;SDS011;4939;52.00085300;4.17406100;2024-03-25T07:54:57;19.33;;;6.75;;
9799;SDS011;4939;52.00085300;4.17406100;2024-03-25T07:57:23;18.27;;;7.47;;
9799;SDS011;4939;52.00085300;4.17406100;2024-03-25T07:59:49;19.70;;;8.32;;
9799;SDS011;4939;52.00085300;4.17406100;2024-03-25T08:02:15;17.77;;;7.40;;
9799;SDS011;4939;52.00085300;4.17406100;2024-03-25T08:04:41;23.88;;;7.97;;
9799;SDS011;4939;52.00085300;4.17406100;2024-03-25T08:07:07;16.98;;;7.47;;
9799;SDS011;4939;52.00085300;4.17406100;2024-03-25T08:09:33;16.90;;;6.93;;
9799;SDS011;4939;52.00085300;4.17406100;2024-03-25T08:11:59;17.30;;;7.47;;
9799;SDS011;4939;52.00085300;4.17406100;2024-03-25T08:14:25;20.10;;;7.63;;
9799;SDS011;4939;52.00085300;4.17406100;2024-03-25T08:16:51;18.77;;;7.47;;
9799;SDS011;4939;52.00085300;4.17406100;2024-03-25T08:19:17;22.10;;;7.82;;
9799;SDS011;4939;52.00085300;4.17406100;2024-03-25T08:21:43;18.10;;;8.02;;
9799;SDS011;4939;52.00085300;4.17406100;2024-03-25T08:24:09;20.73;;;7.75;;
9799;SDS011;4939;52.00085300;4.17406100;2024-03-25T08:26:35;20.17;;;8.35;;
9799;SDS011;4939;52.00085300;4.17406100;2024-03-25T08:29:02;22.13;;;7.93;;
9799;SDS011;4939;52.00085300;4.17406100;2024-03-25T08:31:29;18.00;;;8.40;;
9799;SDS011;4939;52.00085300;4.17406100;2024-03-25T08:33:55;21.00;;;8.45;;
9799;SDS011;4939;52.00085300;4.17406100;2024-03-25T08:36:21;20.05;;;7.80;;
9799;SDS011;4939;52.00085300;4.17406100;2024-03-25T08:38:47;19.92;;;8.52;;
9799;SDS011;4939;52.00085300;4.17406100;2024-03-25T08:41:13;22.85;;;7.95;;
9799;SDS011;4939;52.00085300;4.17406100;2024-03-25T08:43:40;18.67;;;8.38;;
9799;SDS011;4939;52.00085300;4.17406100;2024-03-25T08:46:06;19.40;;;8.98;;
9799;SDS011;4939;52.00085300;4.17406100;2024-03-25T08:48:32;23.92;;;10.00;;
9799;SDS011;4939;52.00085300;4.17406100;2024-03-25T08:50:58;23.83;;;8.45;;
9799;SDS011;4939;52.00085300;4.17406100;2024-03-25T08:53:24;18.20;;;8.85;;
9799;SDS011;4939;52.00085300;4.17406100;2024-03-25T08:55:50;25.20;;;9.55;;
9799;SDS011;4939;52.00085300;4.17406100;2024-03-25T08:58:16;25.50;;;10.27;;
9799;SDS011;4939;52.00085300;4.17406100;2024-03-25T09:00:42;27.40;;;11.63;;
9799;SDS011;4939;52.00085300;4.17406100;2024-03-25T09:03:09;28.45;;;11.75;;
9799;SDS011;4939;52.00085300;4.17406100;2024-03-25T09:05:36;29.35;;;11.10;;
9799;SDS011;4939;52.00085300;4.17406100;2024-03-25T09:08:04;29.42;;;11.30;;
9799;SDS011;4939;52.00085300;4.17406100;2024-03-25T09:10:36;30.63;;;11.18;;
9799;SDS011;4939;52.00085300;4.17406100;2024-03-25T09:13:21;28.45;;;10.25;;
9799;SDS011;4939;52.00085300;4.17406100;2024-03-25T09:15:48;25.77;;;9.05;;
9799;SDS011;4939;52.00085300;4.17406100;2024-03-25T09:18:14;28.05;;;9.43;;
9799;SDS011;4939;52.00085300;4.17406100;2024-03-25T09:20:40;19.60;;;8.90;;
9799;SDS011;4939;52.00085300;4.17406100;2024-03-25T09:23:06;24.05;;;9.48;;
9799;SDS011;4939;52.00085300;4.17406100;2024-03-25T09:25:32;29.33;;;10.60;;
9799;SDS011;4939;52.00085300;4.17406100;2024-03-25T09:27:58;28.90;;;11.27;;
9799;SDS011;4939;52.00085300;4.17406100;2024-03-25T09:30:24;25.52;;;9.73;;
9799;SDS011;4939;52.00085300;4.17406100;2024-03-25T09:32:50;22.60;;;8.93;;
9799;SDS011;4939;52.00085300;4.17406100;2024-03-25T09:35:16;19.58;;;8.57;;
9799;SDS011;4939;52.00085300;4.17406100;2024-03-25T09:37:42;20.80;;;8.05;;
9799;SDS011;4939;52.00085300;4.17406100;2024-03-25T09:40:09;20.15;;;8.27;;
9799;SDS011;4939;52.00085300;4.17406100;2024-03-25T09:42:47;18.50;;;8.75;;
9799;SDS011;4939;52.00085300;4.17406100;2024-03-25T09:45:18;16.75;;;7.57;;
9799;SDS011;4939;52.00085300;4.17406100;2024-03-25T09:47:47;19.15;;;7.88;;
9799;SDS011;4939;52.00085300;4.17406100;2024-03-25T09:50:14;15.98;;;7.13;;
9799;SDS011;4939;52.00085300;4.17406100;2024-03-25T09:52:46;15.15;;;6.70;;
9799;SDS011;4939;52.00085300;4.17406100;2024-03-25T09:55:12;11.48;;;5.95;;
9799;SDS011;4939;52.00085300;4.17406100;2024-03-25T09:57:40;12.95;;;5.78;;
9799;SDS011;4939;52.00085300;4.17406100;2024-03-25T10:00:07;13.10;;;5.70;;
9799;SDS011;4939;52.00085300;4.17406100;2024-03-25T10:02:34;12.45;;;5.43;;
9799;SDS011;4939;52.00085300;4.17406100;2024-03-25T10:05:03;14.30;;;6.35;;
9799;SDS011;4939;52.00085300;4.17406100;2024-03-25T10:07:33;14.55;;;6.40;;
9799;SDS011;4939;52.00085300;4.17406100;2024-03-25T10:10:02;14.27;;;5.93;;
9799;SDS011;4939;52.00085300;4.17406100;2024-03-25T10:12:32;13.60;;;6.47;;
9799;SDS011;4939;52.00085300;4.17406100;2024-03-25T10:14:58;12.18;;;5.75;;
9799;SDS011;4939;52.00085300;4.17406100;2024-03-25T10:17:24;12.43;;;5.40;;
9799;SDS011;4939;52.00085300;4.17406100;2024-03-25T10:19:50;11.82;;;5.15;;
9799;SDS011;4939;52.00085300;4.17406100;2024-03-25T10:22:16;13.52;;;5.35;;
9799;SDS011;4939;52.00085300;4.17406100;2024-03-25T10:24:43;14.15;;;5.68;;
9799;SDS011;4939;52.00085300;4.17406100;2024-03-25T10:27:20;14.52;;;5.70;;
9799;SDS011;4939;52.00085300;4.17406100;2024-03-25T10:29:47;12.55;;;5.22;;
9799;SDS011;4939;52.00085300;4.17406100;2024-03-25T10:32:14;13.68;;;4.65;;
9799;SDS011;4939;52.00085300;4.17406100;2024-03-25T10:34:40;12.13;;;5.15;;
9799;SDS011;4939;52.00085300;4.17406100;2024-03-25T10:37:10;12.40;;;5.05;;
9799;SDS011;4939;52.00085300;4.17406100;2024-03-25T10:39:59;11.23;;;5.10;;
9799;SDS011;4939;52.00085300;4.17406100;2024-03-25T10:42:25;13.90;;;5.47;;
9799;SDS011;4939;52.00085300;4.17406100;2024-03-25T10:44:52;11.35;;;4.90;;
9799;SDS011;4939;52.00085300;4.17406100;2024-03-25T10:47:24;14.25;;;5.47;;
9799;SDS011;4939;52.00085300;4.17406100;2024-03-25T10:49:56;15.30;;;6.10;;
9799;SDS011;4939;52.00085300;4.17406100;2024-03-25T10:52:23;13.43;;;5.53;;
9799;SDS011;4939;52.00085300;4.17406100;2024-03-25T10:54:51;13.95;;;5.53;;
9799;SDS011;4939;52.00085300;4.17406100;2024-03-25T10:57:17;12.73;;;5.05;;
9799;SDS011;4939;52.00085300;4.17406100;2024-03-25T10:59:43;16.73;;;5.40;;
9799;SDS011;4939;52.00085300;4.17406100;2024-03-25T11:02:11;13.02;;;5.30;;
9799;SDS011;4939;52.00085300;4.17406100;2024-03-25T11:04:37;14.10;;;5.60;;
9799;SDS011;4939;52.00085300;4.17406100;2024-03-25T11:07:15;13.88;;;5.88;;
9799;SDS011;4939;52.00085300;4.17406100;2024-03-25T11:09:41;16.92;;;6.15;;
9799;SDS011;4939;52.00085300;4.17406100;2024-03-25T11:12:11;17.42;;;5.40;;
9799;SDS011;4939;52.00085300;4.17406100;2024-03-25T11:14:38;13.20;;;5.32;;
9799;SDS011;4939;52.00085300;4.17406100;2024-03-25T11:17:22;12.95;;;4.85;;
9799;SDS011;4939;52.00085300;4.17406100;2024-03-25T11:19:48;13.02;;;4.80;;
9799;SDS011;4939;52.00085300;4.17406100;2024-03-25T11:22:14;14.05;;;4.95;;
9799;SDS011;4939;52.00085300;4.17406100;2024-03-25T11:24:43;15.00;;;5.20;;
9799;SDS011;4939;52.00085300;4.17406100;2024-03-25T11:27:10;14.70;;;5.00;;
9799;SDS011;4939;52.00085300;4.17406100;2024-03-25T11:29:36;9.98;;;3.92;;
9799;SDS011;4939;52.00085300;4.17406100;2024-03-25T11:32:03;11.45;;;4.43;;
9799;SDS011;4939;52.00085300;4.17406100;2024-03-25T11:34:29;11.18;;;4.13;;
9799;SDS011;4939;52.00085300;4.17406100;2024-03-25T11:36:56;10.35;;;3.90;;
9799;SDS011;4939;52.00085300;4.17406100;2024-03-25T11:39:23;13.65;;;5.40;;
9799;SDS011;4939;52.00085300;4.17406100;2024-03-25T11:41:49;12.50;;;5.10;;
9799;SDS011;4939;52.00085300;4.17406100;2024-03-25T11:44:16;14.35;;;4.47;;
9799;SDS011;4939;52.00085300;4.17406100;2024-03-25T11:46:43;11.70;;;4.80;;
9799;SDS011;4939;52.00085300;4.17406100;2024-03-25T11:49:12;9.02;;;3.80;;
9799;SDS011;4939;52.00085300;4.17406100;2024-03-25T11:51:40;12.15;;;4.05;;
9799;SDS011;4939;52.00085300;4.17406100;2024-03-25T11:54:10;11.30;;;3.67;;
9799;SDS011;4939;52.00085300;4.17406100;2024-03-25T11:56:36;9.18;;;4.18;;
9799;SDS011;4939;52.00085300;4.17406100;2024-03-25T11:59:03;8.20;;;3.80;;
9799;SDS011;4939;52.00085300;4.17406100;2024-03-25T12:01:30;14.57;;;4.05;;
9799;SDS011;4939;52.00085300;4.17406100;2024-03-25T12:03:56;15.73;;;4.53;;
9799;SDS011;4939;52.00085300;4.17406100;2024-03-25T12:06:22;13.82;;;4.93;;
9799;SDS011;4939;52.00085300;4.17406100;2024-03-25T12:08:49;10.00;;;4.43;;
9799;SDS011;4939;52.00085300;4.17406100;2024-03-25T12:11:34;15.35;;;5.55;;
9799;SDS011;4939;52.00085300;4.17406100;2024-03-25T12:14:00;13.45;;;5.47;;
9799;SDS011;4939;52.00085300;4.17406100;2024-03-25T12:16:26;15.80;;;6.40;;
9799;SDS011;4939;52.00085300;4.17406100;2024-03-25T12:18:52;17.52;;;7.55;;
9799;SDS011;4939;52.00085300;4.17406100;2024-03-25T12:21:19;17.90;;;6.68;;
9799;SDS011;4939;52.00085300;4.17406100;2024-03-25T12:23:46;19.23;;;7.13;;
9799;SDS011;4939;52.00085300;4.17406100;2024-03-25T12:26:12;20.15;;;7.60;;
9799;SDS011;4939;52.00085300;4.17406100;2024-03-25T12:28:39;18.90;;;7.10;;
9799;SDS011;4939;52.00085300;4.17406100;2024-03-25T12:31:08;19.80;;;7.28;;
9799;SDS011;4939;52.00085300;4.17406100;2024-03-25T12:33:42;21.13;;;7.65;;
9799;SDS011;4939;52.00085300;4.17406100;2024-03-25T12:36:08;21.60;;;7.03;;
9799;SDS011;4939;52.00085300;4.17406100;2024-03-25T12:38:35;15.65;;;6.10;;
9799;SDS011;4939;52.00085300;4.17406100;2024-03-25T12:41:04;15.93;;;5.90;;
9799;SDS011;4939;52.00085300;4.17406100;2024-03-25T12:43:43;13.52;;;5.45;;
9799;SDS011;4939;52.00085300;4.17406100;2024-03-25T12:48:36;12.75;;;5.40;;
9799;SDS011;4939;52.00085300;4.17406100;2024-03-25T12:51:03;14.18;;;5.35;;
9799;SDS011;4939;52.00085300;4.17406100;2024-03-25T12:53:29;14.98;;;5.00;;
9799;SDS011;4939;52.00085300;4.17406100;2024-03-25T12:55:56;15.27;;;5.30;;
9799;SDS011;4939;52.00085300;4.17406100;2024-03-25T12:58:22;12.60;;;4.70;;
9799;SDS011;4939;52.00085300;4.17406100;2024-03-25T13:00:48;13.30;;;5.22;;
9799;SDS011;4939;52.00085300;4.17406100;2024-03-25T13:03:14;17.98;;;4.78;;